Time;durP1;ratioP1;P1;durP2;ratioP2;P2;SDS_P1;SDS_P2;PMS_P1;PMS_P2;Temp;Humidity;BMP_temperature;BMP_pressure;BME280_temperature;BME280_humidity;BME280_pressure;Samples;Min_cycle;Max_cycle;Signal;HPM_P1;HPM_P2
2022/06/09 00:01:48;;;;;;;1.52;1.10;;;;;;;14.31;89.26;97863.66;4190859;27;20102;-71
2022/06/09 00:04:02;;;;;;;1.52;1.05;;;;;;;14.30;89.14;97850.13;4186217;28;20465;-71
2022/06/09 00:06:06;;;;;;;1.90;1.27;;;;;;;14.30;88.96;97862.03;4186595;28;20499;-71
2022/06/09 00:08:07;;;;;;;1.95;1.17;;;;;;;14.28;89.91;97858.09;4186073;28;20119;-71
2022/06/09 00:10:12;;;;;;;1.55;1.08;;;;;;;14.24;90.42;97863.72;4186052;28;20029;-72
2022/06/09 00:12:12;;;;;;;2.40;1.20;;;;;;;14.22;91.31;97868.13;4185362;28;20040;-71
2022/06/09 00:14:14;;;;;;;1.83;1.27;;;;;;;14.19;91.59;97868.97;4189910;28;20487;-71
2022/06/09 00:16:14;;;;;;;1.45;0.95;;;;;;;14.18;90.68;97870.16;4195504;28;20491;-71
2022/06/09 00:18:15;;;;;;;1.35;1.10;;;;;;;14.20;90.96;97876.09;4186535;28;20036;-72
2022/06/09 00:20:17;;;;;;;1.33;1.20;;;;;;;14.21;91.49;97874.88;4186280;28;20029;-72
2022/06/09 00:22:18;;;;;;;1.58;1.20;;;;;;;14.19;92.36;97875.31;4186530;28;20036;-71
2022/06/09 00:24:19;;;;;;;2.08;1.17;;;;;;;14.17;91.65;97869.38;4186201;28;20457;-71
2022/06/09 00:26:19;;;;;;;2.22;1.20;;;;;;;14.17;92.08;97872.16;4189300;27;20036;-71
2022/06/09 00:28:20;;;;;;;3.40;1.40;;;;;;;14.09;92.83;97865.13;4188762;28;20029;-71
2022/06/09 00:30:20;;;;;;;1.55;1.40;;;;;;;14.08;93.46;97868.31;4185929;28;20110;-71
2022/06/09 00:32:21;;;;;;;2.63;1.42;;;;;;;14.10;92.15;97875.03;4192740;28;20516;-72
2022/06/09 00:34:21;;;;;;;2.25;1.48;;;;;;;14.11;92.71;97875.81;4192316;27;20480;-72
2022/06/09 00:36:21;;;;;;;2.88;1.45;;;;;;;14.10;92.75;97871.47;4186512;28;20426;-72
2022/06/09 00:38:22;;;;;;;2.13;1.35;;;;;;;14.08;94.37;97871.09;4185610;28;20037;-72
2022/06/09 00:40:22;;;;;;;3.72;1.50;;;;;;;14.04;93.77;97871.13;4186589;28;20051;-72
2022/06/09 00:42:23;;;;;;;1.63;1.20;;;;;;;14.02;93.59;97874.31;4192973;28;20076;-71
2022/06/09 00:44:27;;;;;;;2.30;1.30;;;;;;;14.01;93.01;97867.19;4187643;28;20098;-72
2022/06/09 00:46:32;;;;;;;1.83;1.52;;;;;;;14.01;93.47;97871.97;4190224;28;20111;-72
2022/06/09 00:48:48;;;;;;;3.17;1.50;;;;;;;13.97;93.79;97874.78;4187282;28;20484;-72
2022/06/09 00:50:55;;;;;;;1.23;1.13;;;;;;;13.95;94.82;97882.75;4186264;28;20511;-72
2022/06/09 00:53:00;;;;;;;2.33;1.50;;;;;;;13.93;95.82;97889.94;4185395;28;20126;-72
2022/06/09 00:55:05;;;;;;;2.60;1.60;;;;;;;13.90;95.82;97887.97;4187831;27;20063;-71
2022/06/09 00:57:11;;;;;;;1.58;1.48;;;;;;;13.94;95.71;97889.50;4185195;28;20043;-72
2022/06/09 00:59:15;;;;;;;3.17;1.70;;;;;;;13.93;96.21;97887.94;4184743;28;20047;-72
2022/06/09 01:01:17;;;;;;;3.00;1.70;;;;;;;13.88;97.58;97885.59;4186428;28;20746;-72
2022/06/09 01:03:20;;;;;;;;;;;;;;;13.86;97.95;97882.47;4185564;28;20040;-72
2022/06/09 01:05:23;;;;;;;3.25;1.90;;;;;;;13.84;98.21;97881.31;4185932;28;20340;-72
2022/06/09 01:07:31;;;;;;;3.58;1.98;;;;;;;13.82;98.54;97886.47;4185866;28;20087;-72
2022/06/09 01:09:32;;;;;;;2.95;1.80;;;;;;;13.79;97.15;97879.75;4184839;28;20040;-72
2022/06/09 01:11:33;;;;;;;2.67;1.70;;;;;;;13.79;98.35;97885.31;4185543;28;20032;-72
2022/06/09 01:13:34;;;;;;;2.67;1.90;;;;;;;13.84;97.98;97886.88;4186331;28;20215;-72
2022/06/09 01:15:40;;;;;;;3.50;2.03;;;;;;;13.85;97.51;97885.66;4190394;28;20044;-72
2022/06/09 01:18:07;;;;;;;2.97;2.03;;;;;;;13.85;97.86;97880.88;4187530;28;20128;-72
2022/06/09 01:20:15;;;;;;;2.83;2.00;;;;;;;13.87;96.24;97884.03;4187713;28;20048;-72
2022/06/09 01:22:34;;;;;;;2.45;2.15;;;;;;;13.84;97.28;97884.88;4189078;28;20764;-71
2022/06/09 01:25:02;;;;;;;2.95;2.15;;;;;;;13.82;97.37;97878.94;4193962;27;20048;-72
2022/06/09 01:27:10;;;;;;;3.38;2.10;;;;;;;13.85;96.93;97880.88;4193516;28;20428;-72
2022/06/09 01:29:35;;;;;;;2.30;2.00;;;;;;;13.82;97.57;97884.50;4188364;28;20098;-72
2022/06/09 01:31:43;;;;;;;2.83;2.05;;;;;;;13.76;97.38;97881.38;4188567;28;20525;-72
2022/06/09 01:33:58;;;;;;;3.00;2.30;;;;;;;13.70;97.61;97896.91;4188812;28;20055;-72
2022/06/09 01:36:30;;;;;;;2.75;2.38;;;;;;;13.71;97.03;97892.16;4188544;28;20090;-71
2022/06/09 01:38:42;;;;;;;2.65;2.20;;;;;;;13.65;97.29;97891.84;4187632;28;20049;-71
2022/06/09 01:40:43;;;;;;;2.95;2.25;;;;;;;13.58;97.41;97889.13;4193578;28;20311;-72
2022/06/09 01:42:46;;;;;;;2.17;1.98;;;;;;;13.62;95.94;97891.84;4188729;28;20040;-72
2022/06/09 01:44:47;;;;;;;5.30;2.05;;;;;;;13.64;96.15;97890.22;4189240;28;20060;-72
2022/06/09 01:46:47;;;;;;;3.03;1.95;;;;;;;13.59;96.42;97889.91;4188735;28;20056;-72
2022/06/09 01:48:53;;;;;;;2.97;2.03;;;;;;;13.58;95.95;97885.56;4193248;28;20048;-72
2022/06/09 01:51:25;;;;;;;2.40;1.98;;;;;;;13.58;95.61;97891.91;4189101;28;20400;-71
2022/06/09 01:53:32;;;;;;;3.28;2.40;;;;;;;13.47;96.24;97889.19;4187186;28;20075;-71
2022/06/09 01:55:37;;;;;;;2.58;2.22;;;;;;;13.44;96.30;97890.03;4193569;28;20051;-72
2022/06/09 01:57:40;;;;;;;2.80;2.13;;;;;;;13.34;96.54;97890.94;4195101;28;20052;-72
2022/06/09 01:59:47;;;;;;;3.72;2.30;;;;;;;13.36;96.65;97876.63;4187863;28;20053;-72
2022/06/09 02:02:04;;;;;;;2.70;2.20;;;;;;;13.34;96.90;97890.13;4190605;28;20041;-71
2022/06/09 02:04:11;;;;;;;2.63;2.13;;;;;;;13.29;96.25;97879.47;4190655;28;20077;-71
2022/06/09 02:06:12;;;;;;;3.85;2.20;;;;;;;13.30;96.21;97875.47;4188249;28;20028;-71
2022/06/09 02:08:16;;;;;;;2.30;2.10;;;;;;;13.23;96.99;97886.66;4193970;28;20028;-72
2022/06/09 02:10:28;;;;;;;6.50;2.20;;;;;;;13.21;97.66;97884.28;4190240;28;20052;-71
2022/06/09 02:12:29;;;;;;;2.50;2.30;;;;;;;13.26;97.57;97888.63;4188351;28;20484;-71
2022/06/09 02:14:30;;;;;;;2.88;2.22;;;;;;;13.24;98.03;97900.16;4189164;28;20667;-72
2022/06/09 02:16:31;;;;;;;2.42;2.10;;;;;;;13.24;99.01;97900.16;4187797;28;20089;-71
2022/06/09 02:18:36;;;;;;;3.95;2.20;;;;;;;13.20;98.80;97905.72;4191614;28;20063;-71
2022/06/09 02:20:42;;;;;;;2.50;2.30;;;;;;;13.15;99.58;97913.66;4188364;28;20850;-71
2022/06/09 02:22:42;;;;;;;4.45;2.60;;;;;;;13.10;100.00;97920.44;4188240;28;20391;-71
2022/06/09 02:24:42;;;;;;;3.58;2.70;;;;;;;13.06;100.00;97916.09;4193820;28;20041;-71
2022/06/09 02:26:43;;;;;;;3.30;2.30;;;;;;;13.09;100.00;97924.44;4194292;27;20403;-72
2022/06/09 02:28:43;;;;;;;3.20;2.60;;;;;;;13.09;100.00;97924.44;4190653;28;20519;-72
2022/06/09 02:30:44;;;;;;;2.80;2.30;;;;;;;13.12;100.00;97926.38;4186797;28;20044;-72
2022/06/09 02:32:44;;;;;;;4.70;2.50;;;;;;;13.14;100.00;97931.53;4191135;28;20535;-72
2022/06/09 02:34:44;;;;;;;3.03;2.38;;;;;;;13.13;100.00;97930.72;4187755;28;20064;-72
2022/06/09 02:36:45;;;;;;;3.53;2.80;;;;;;;13.16;99.71;97937.47;4187930;28;20040;-71
2022/06/09 02:38:45;;;;;;;5.05;2.63;;;;;;;13.16;99.48;97937.47;4186741;28;20468;-71
2022/06/09 02:40:46;;;;;;;4.35;2.70;;;;;;;13.17;98.58;97942.63;4190709;28;20044;-71
2022/06/09 02:42:47;;;;;;;4.93;2.70;;;;;;;13.16;98.53;97941.03;4190533;28;20045;-72
2022/06/09 02:44:47;;;;;;;3.50;2.42;;;;;;;13.14;98.22;97935.09;4187544;28;20131;-72
2022/06/09 02:46:48;;;;;;;3.17;2.67;;;;;;;13.14;97.55;97934.31;4192352;27;20072;-72
2022/06/09 02:48:48;;;;;;;3.13;2.53;;;;;;;13.16;97.80;97937.47;4186655;28;20045;-72
2022/06/09 02:50:51;;;;;;;3.22;2.50;;;;;;;13.10;97.40;97930.78;4187774;28;20044;-71
2022/06/09 02:52:51;;;;;;;4.50;2.95;;;;;;;13.06;97.85;97938.31;4188508;28;20115;-71
2022/06/09 02:54:54;;;;;;;3.70;2.60;;;;;;;13.03;97.56;97937.16;4187349;28;20074;-71
2022/06/09 02:56:54;;;;;;;3.65;2.35;;;;;;;12.98;97.60;97943.13;4192719;27;20040;-71
2022/06/09 02:58:57;;;;;;;3.55;2.40;;;;;;;12.92;97.88;97936.47;4187037;28;20728;-72
2022/06/09 03:00:57;;;;;;;3.13;2.35;;;;;;;12.93;97.36;97944.38;4187868;28;20428;-72
2022/06/09 03:03:00;;;;;;;4.40;2.38;;;;;;;12.92;95.67;97942.00;4187310;28;20044;-72
2022/06/09 03:05:01;;;;;;;3.55;2.72;;;;;;;12.89;95.88;97951.91;4191385;27;20076;-71
2022/06/09 03:07:02;;;;;;;5.45;2.58;;;;;;;12.83;96.33;97959.13;4191705;28;20528;-72
2022/06/09 03:09:02;;;;;;;4.45;2.85;;;;;;;12.77;96.55;97959.94;4186545;28;20128;-72
2022/06/09 03:11:03;;;;;;;5.30;2.42;;;;;;;12.73;96.82;97959.94;4192784;27;20055;-71
2022/06/09 03:13:04;;;;;;;4.85;2.65;;;;;;;12.70;97.44;97958.00;4186798;28;20134;-71
2022/06/09 03:15:08;;;;;;;3.97;2.80;;;;;;;12.65;97.07;97958.41;4193086;28;20123;-72
2022/06/09 03:17:08;;;;;;;3.30;2.63;;;;;;;12.60;97.66;97956.84;4187016;28;20079;-71
2022/06/09 03:19:09;;;;;;;3.22;2.63;;;;;;;12.55;97.48;97960.03;4186687;28;20028;-71
2022/06/09 03:21:11;;;;;;;2.95;2.65;;;;;;;12.52;98.87;97968.38;4188580;27;20115;-72
2022/06/09 03:23:11;;;;;;;5.10;2.75;;;;;;;12.46;99.06;97964.44;4187566;28;20106;-72
2022/06/09 03:25:12;;;;;;;4.60;2.58;;;;;;;12.47;98.99;97975.13;4185767;28;20052;-71
2022/06/09 03:27:12;;;;;;;2.78;2.40;;;;;;;12.47;98.93;97972.38;4186081;28;20492;-71
2022/06/09 03:29:13;;;;;;;7.53;2.80;;;;;;;12.47;96.58;97974.34;4185391;28;20469;-72
2022/06/09 03:31:13;;;;;;;5.72;2.72;;;;;;;12.47;96.74;97982.66;4186056;28;20315;-71
2022/06/09 03:33:13;;;;;;;6.57;2.50;;;;;;;12.49;96.44;97974.72;4185723;28;20177;-72
2022/06/09 03:35:14;;;;;;;5.72;2.65;;;;;;;12.49;96.64;97985.81;4188810;28;20064;-72
2022/06/09 03:37:14;;;;;;;5.63;2.65;;;;;;;12.45;99.36;97976.75;4185763;28;20070;-72
2022/06/09 03:39:15;;;;;;;2.72;2.33;;;;;;;12.44;99.49;97970.41;4185026;28;20036;-71
2022/06/09 03:41:15;;;;;;;3.42;2.25;;;;;;;12.46;98.51;97972.78;4188400;28;20047;-71
2022/06/09 03:43:16;;;;;;;3.05;2.42;;;;;;;12.46;97.49;97973.56;4186520;28;20048;-72
2022/06/09 03:45:17;;;;;;;2.88;2.58;;;;;;;12.44;98.52;97975.94;4191576;27;20086;-71
2022/06/09 03:47:17;;;;;;;4.28;2.28;;;;;;;12.50;98.65;97982.69;4186418;28;20408;-71
2022/06/09 03:49:17;;;;;;;2.88;2.13;;;;;;;12.51;97.89;97977.91;4192453;28;20347;-71
2022/06/09 03:51:18;;;;;;;5.30;2.60;;;;;;;12.53;98.42;97975.53;4186012;28;20045;-72
2022/06/09 03:53:18;;;;;;;5.40;2.70;;;;;;;12.55;98.82;97984.22;4187029;28;20041;-72
2022/06/09 03:55:18;;;;;;;4.25;2.10;;;;;;;12.54;98.48;97982.66;4186872;28;20051;-71
2022/06/09 03:57:19;;;;;;;2.53;2.17;;;;;;;12.61;97.81;97985.41;4190848;27;20056;-72
2022/06/09 03:59:19;;;;;;;3.30;2.35;;;;;;;12.65;98.05;97986.16;4191461;28;20076;-72
2022/06/09 04:01:20;;;;;;;2.60;2.40;;;;;;;12.64;97.23;97981.81;4186334;28;20036;-71
2022/06/09 04:03:20;;;;;;;3.20;2.40;;;;;;;12.62;97.38;97986.97;4186787;28;20128;-71
2022/06/09 04:05:21;;;;;;;3.92;2.40;;;;;;;12.60;97.64;97992.94;4195531;27;20043;-71
2022/06/09 04:07:21;;;;;;;3.17;2.63;;;;;;;12.56;97.71;97991.34;4189574;28;20063;-70
2022/06/09 04:09:22;;;;;;;4.80;2.10;;;;;;;12.52;97.75;97993.38;4186207;28;20143;-71
2022/06/09 04:11:23;;;;;;;2.70;2.22;;;;;;;12.48;97.16;97989.78;4186334;28;20078;-71
2022/06/09 04:13:23;;;;;;;4.65;2.63;;;;;;;12.49;97.41;97996.94;4186686;28;20037;-71
2022/06/09 04:15:24;;;;;;;4.50;2.28;;;;;;;12.47;97.32;97999.31;4190627;27;20486;-71
2022/06/09 04:17:24;;;;;;;3.30;2.38;;;;;;;12.44;98.18;97997.34;4187419;28;20085;-71
2022/06/09 04:19:25;;;;;;;3.75;2.67;;;;;;;12.42;97.57;98000.53;4186144;28;20042;-71
2022/06/09 04:21:30;;;;;;;6.20;2.72;;;;;;;12.43;97.24;97995.78;4186064;28;20080;-71
2022/06/09 04:23:30;;;;;;;3.33;2.40;;;;;;;12.42;98.34;97997.75;4186436;28;20219;-72
2022/06/09 04:25:31;;;;;;;5.32;2.47;;;;;;;12.41;98.95;97995.38;4186274;28;20029;-71
2022/06/09 04:27:31;;;;;;;4.53;2.78;;;;;;;12.40;99.27;97993.78;4185462;28;20121;-72
2022/06/09 04:29:31;;;;;;;4.97;2.90;;;;;;;12.40;98.76;98000.13;4190217;28;20049;-72
2022/06/09 04:31:33;;;;;;;4.40;2.55;;;;;;;12.44;98.29;97998.16;4186970;28;20105;-72
2022/06/09 04:33:33;;;;;;;5.78;2.45;;;;;;;12.45;97.47;97988.63;4191995;27;20059;-71
2022/06/09 04:35:34;;;;;;;4.07;2.65;;;;;;;12.47;97.38;97996.53;4184858;28;20627;-72
2022/06/09 04:39:53;;;;;;;3.38;2.72;;;;;;;12.43;99.40;97999.34;4187131;27;20420;-72
2022/06/09 04:41:53;;;;;;;3.72;2.70;;;;;;;12.46;99.15;97997.75;4186299;28;20036;-72
2022/06/09 04:43:53;;;;;;;4.43;2.78;;;;;;;12.50;99.11;98004.88;4186655;28;20051;-71
2022/06/09 04:45:54;;;;;;;4.90;2.58;;;;;;;12.55;98.58;97998.09;4185803;28;20041;-71
2022/06/09 04:47:54;;;;;;;4.55;3.35;;;;;;;12.51;99.41;98006.44;4186266;28;20052;-71
2022/06/09 04:49:55;;;;;;;7.13;2.97;;;;;;;12.54;99.04;98011.19;4185573;28;20044;-72
2022/06/09 04:51:55;;;;;;;3.80;2.50;;;;;;;12.56;98.66;98005.22;4185924;28;20271;-72
2022/06/09 04:53:55;;;;;;;4.65;2.50;;;;;;;12.59;99.02;98005.22;4185984;28;20396;-72
2022/06/09 04:55:56;;;;;;;6.82;2.60;;;;;;;12.68;98.37;98001.22;4126875;27;20496;-71
2022/06/09 04:57:58;;;;;;;8.70;3.22;;;;;;;12.70;98.16;98007.94;4192328;27;20043;-71
2022/06/09 04:59:58;;;;;;;4.97;3.00;;;;;;;12.81;96.84;98005.91;4188208;28;20049;-72
2022/06/09 05:01:59;;;;;;;4.63;3.20;;;;;;;12.81;96.70;98005.91;4189259;28;20044;-71
2022/06/09 05:04:00;;;;;;;4.57;3.55;;;;;;;12.85;96.13;98011.47;4188918;28;20041;-71
2022/06/09 05:06:01;;;;;;;3.60;2.85;;;;;;;12.86;95.91;98013.03;4188865;28;20048;-71
2022/06/09 05:08:01;;;;;;;5.65;3.13;;;;;;;12.90;94.40;98020.13;4194980;28;20469;-71
2022/06/09 05:10:02;;;;;;;5.70;3.25;;;;;;;12.92;93.86;98017.75;4188406;28;20056;-72
2022/06/09 05:12:04;;;;;;;7.95;2.92;;;;;;;12.97;93.57;98019.31;4189397;28;20513;-71
2022/06/09 05:14:04;;;;;;;5.97;3.13;;;;;;;13.00;93.46;98032.41;4188573;28;20078;-71
2022/06/09 05:16:05;;;;;;;7.15;3.85;;;;;;;13.01;93.84;98025.66;4188809;28;20021;-72
2022/06/09 05:18:06;;;;;;;6.55;3.40;;;;;;;13.04;93.45;98029.59;4189191;28;20701;-72
2022/06/09 05:20:08;;;;;;;5.18;3.53;;;;;;;13.09;92.98;98023.63;4188338;28;20028;-72
2022/06/09 05:22:08;;;;;;;6.28;4.18;;;;;;;13.16;92.45;98029.16;4194059;27;20089;-72
2022/06/09 05:24:08;;;;;;;7.05;4.20;;;;;;;13.20;93.32;98021.59;4188780;28;20448;-72
2022/06/09 05:26:10;;;;;;;7.05;4.10;;;;;;;13.27;93.69;98026.31;4190606;28;20037;-72
2022/06/09 05:28:10;;;;;;;8.10;4.78;;;;;;;13.39;92.51;98034.16;4188636;28;20260;-72
2022/06/09 05:30:20;;;;;;;10.55;5.53;;;;;;;13.46;93.55;98031.34;4189371;27;20028;-72
2022/06/09 05:32:21;;;;;;;9.02;5.38;;;;;;;13.58;92.68;98033.66;4189276;28;20056;-72
2022/06/09 05:34:22;;;;;;;10.23;6.30;;;;;;;13.69;92.71;98025.22;4188253;28;20551;-72
2022/06/09 05:36:22;;;;;;;9.10;5.90;;;;;;;13.93;92.02;98034.53;4188333;28;20135;-72
2022/06/09 05:45:20;;;;;;;7.53;6.20;;;;;;;14.56;91.39;98049.03;4188297;28;20047;-72
2022/06/09 05:47:22;;;;;;;13.88;6.88;;;;;;;14.69;89.71;98047.28;4187984;28;20044;-72
2022/06/09 05:49:23;;;;;;;10.25;6.45;;;;;;;14.78;87.47;98050.38;4187679;28;20040;-72
2022/06/09 05:51:23;;;;;;;9.77;6.28;;;;;;;15.00;89.34;98053.69;4199405;27;20414;-72
2022/06/09 05:53:23;;;;;;;12.88;7.20;;;;;;;15.12;86.70;98050.31;4188252;28;20079;-72
2022/06/09 05:55:24;;;;;;;9.02;6.93;;;;;;;15.15;85.33;98049.50;4188511;28;20048;-72
2022/06/09 05:57:25;;;;;;;10.57;6.45;;;;;;;15.21;84.55;98058.16;4194262;27;20050;-72
2022/06/09 05:59:26;;;;;;;8.95;5.45;;;;;;;15.17;83.82;98055.44;4187818;28;20435;-72
2022/06/09 06:01:26;;;;;;;9.75;6.20;;;;;;;15.22;82.83;98065.31;4188172;28;20048;-72
2022/06/09 06:03:27;;;;;;;8.20;6.38;;;;;;;15.18;83.74;98068.16;4188403;28;20048;-72
2022/06/09 06:07:47;;;;;;;6.47;5.13;;;;;;;15.07;84.27;98078.66;4187897;28;20051;-72
2022/06/09 06:09:47;;;;;;;7.55;5.38;;;;;;;14.90;84.18;98062.97;4187741;28;20388;-72
2022/06/09 06:11:48;;;;;;;9.38;5.57;;;;;;;14.92;85.37;98077.25;4193856;28;20087;-72
2022/06/09 06:13:50;;;;;;;7.47;5.90;;;;;;;14.92;85.36;98071.69;4187700;28;20044;-72
2022/06/09 06:15:51;;;;;;;10.68;5.70;;;;;;;14.98;84.97;98085.97;4188333;28;20044;-72
2022/06/09 06:17:53;;;;;;;11.48;6.07;;;;;;;15.07;84.90;98081.44;4187738;28;20082;-72
2022/06/09 06:19:54;;;;;;;;;;;;;;;15.16;85.49;98092.88;4187835;28;20056;-72
2022/06/09 06:21:54;;;;;;;8.98;5.35;;;;;;;15.24;85.37;98090.78;4187502;28;19912;-72
2022/06/09 06:23:55;;;;;;;9.73;5.45;;;;;;;15.07;84.13;98100.97;4188658;28;20321;-72
2022/06/09 06:25:56;;;;;;;9.45;5.20;;;;;;;15.17;84.07;98096.44;4198230;28;20051;-72
2022/06/09 06:27:58;;;;;;;12.68;5.47;;;;;;;15.29;85.34;98101.44;4188340;27;20055;-72
2022/06/09 06:29:58;;;;;;;7.90;5.72;;;;;;;15.31;83.75;98101.84;4192056;28;20486;-72
2022/06/09 06:31:59;;;;;;;9.23;5.68;;;;;;;15.43;83.07;98111.63;4191915;27;20041;-72
2022/06/09 06:33:59;;;;;;;10.00;5.68;;;;;;;15.38;83.16;98129.59;4187911;28;20436;-72
2022/06/09 06:35:59;;;;;;;9.88;5.80;;;;;;;15.41;83.64;98120.41;4187886;28;20323;-72
2022/06/09 06:38:00;;;;;;;8.00;5.10;;;;;;;15.51;82.76;98118.69;4187659;28;20048;-72
2022/06/09 06:40:00;;;;;;;8.27;5.25;;;;;;;15.54;82.34;98119.84;4194652;28;20036;-72
2022/06/09 06:42:01;;;;;;;11.05;5.43;;;;;;;15.42;82.26;98115.63;4188297;28;20040;-72
2022/06/09 06:44:01;;;;;;;10.27;5.47;;;;;;;15.52;82.64;98127.84;4188235;28;20290;-72
2022/06/09 06:46:02;;;;;;;8.63;5.65;;;;;;;15.44;83.01;98124.34;4186765;28;20046;-72
2022/06/09 06:48:03;;;;;;;10.77;5.45;;;;;;;15.50;82.57;98124.69;4187255;28;20032;-72
2022/06/09 06:50:03;;;;;;;10.80;5.95;;;;;;;15.57;83.13;98133.75;4186901;28;20362;-72
2022/06/09 06:52:04;;;;;;;7.95;5.45;;;;;;;15.61;82.14;98128.13;4187421;28;20043;-72
2022/06/09 06:54:05;;;;;;;7.13;5.03;;;;;;;15.70;82.91;98133.97;4187538;28;20490;-72
2022/06/09 06:56:07;;;;;;;7.53;5.50;;;;;;;15.76;81.93;98137.09;4187226;28;20381;-72
2022/06/09 06:58:07;;;;;;;9.20;5.33;;;;;;;15.79;81.38;98130.66;4187554;28;20546;-72
2022/06/09 07:00:12;;;;;;;6.68;4.90;;;;;;;15.85;80.31;98134.56;4186295;28;20058;-72
2022/06/09 07:02:13;;;;;;;7.88;4.80;;;;;;;15.90;79.42;98137.69;4187370;28;20024;-72
2022/06/09 07:04:13;;;;;;;6.68;4.78;;;;;;;15.86;79.55;98133.34;4193734;27;20092;-72
2022/06/09 07:06:13;;;;;;;7.03;4.00;;;;;;;15.96;77.13;98140.75;4187414;28;20060;-72
2022/06/09 07:08:16;;;;;;;6.93;4.18;;;;;;;15.99;78.70;98137.13;4188888;28;20061;-72
2022/06/09 07:10:18;;;;;;;7.20;4.38;;;;;;;15.94;77.46;98140.41;4186711;28;20047;-72
2022/06/09 07:12:19;;;;;;;5.07;4.28;;;;;;;16.09;78.05;98138.19;4186961;28;20086;-71
2022/06/09 07:14:19;;;;;;;7.78;4.57;;;;;;;16.09;75.97;98141.75;4193271;27;20039;-72
2022/06/09 07:16:20;;;;;;;6.22;4.38;;;;;;;15.87;76.57;98140.50;4186387;28;20415;-71
2022/06/09 07:18:20;;;;;;;10.15;4.25;;;;;;;16.00;76.67;98141.50;4188613;28;20048;-72
2022/06/09 07:20:21;;;;;;;7.60;4.82;;;;;;;16.20;78.00;98141.56;4190225;28;20321;-72
2022/06/09 07:22:22;;;;;;;9.70;4.43;;;;;;;16.32;77.07;98143.00;4187253;28;20048;-72
2022/06/09 07:24:23;;;;;;;6.63;4.35;;;;;;;16.46;77.10;98142.72;4188094;28;20551;-72
2022/06/09 07:26:23;;;;;;;7.72;4.47;;;;;;;16.54;75.54;98144.97;4193748;28;20076;-72
2022/06/09 07:28:25;;;;;;;4.80;3.78;;;;;;;16.52;75.36;98143.81;4187930;28;20373;-72
2022/06/09 07:30:27;;;;;;;6.40;4.15;;;;;;;16.49;74.87;98145.47;4187617;28;21210;-72
2022/06/09 07:32:28;;;;;;;5.30;3.72;;;;;;;16.69;75.48;98153.13;4187103;28;20043;-72
2022/06/09 07:34:28;;;;;;;7.00;3.55;;;;;;;16.74;72.98;98155.44;4186464;28;20132;-72
2022/06/09 07:36:29;;;;;;;5.32;3.33;;;;;;;16.87;72.19;98155.59;4186818;28;20052;-72
2022/06/09 07:38:30;;;;;;;5.07;3.40;;;;;;;16.99;71.60;98157.78;4186327;28;20388;-72
2022/06/09 07:40:32;;;;;;;4.93;3.72;;;;;;;16.98;72.99;98159.78;4186701;28;20495;-72
2022/06/09 07:42:33;;;;;;;6.88;3.42;;;;;;;17.04;74.16;98168.44;4186621;28;20326;-72
2022/06/09 07:44:34;;;;;;;5.40;3.60;;;;;;;17.00;72.12;98164.94;4191728;28;20046;-72
2022/06/09 07:46:35;;;;;;;6.47;3.63;;;;;;;16.95;72.47;98163.41;4188250;28;20053;-72
2022/06/09 07:48:35;;;;;;;7.53;3.92;;;;;;;16.88;71.69;98168.34;4191603;27;20057;-72
2022/06/09 07:50:36;;;;;;;7.47;3.83;;;;;;;16.67;70.81;98172.31;4187004;28;20481;-72
2022/06/09 07:52:37;;;;;;;6.60;3.88;;;;;;;16.60;71.26;98176.00;4186379;28;20755;-72
2022/06/09 07:54:37;;;;;;;8.48;4.43;;;;;;;16.37;70.07;98181.56;4186319;28;20707;-72
2022/06/09 07:56:37;;;;;;;8.32;4.00;;;;;;;16.25;70.72;98182.97;4186774;28;20045;-72
2022/06/09 07:58:38;;;;;;;12.45;3.83;;;;;;;16.25;71.26;98178.19;4185681;28;20087;-72
2022/06/09 08:00:39;;;;;;;4.45;3.65;;;;;;;16.25;72.07;98180.97;4186331;28;20049;-71
2022/06/09 08:02:41;;;;;;;6.75;3.95;;;;;;;16.38;72.92;98183.16;4188200;28;20040;-72
2022/06/09 08:04:41;;;;;;;5.13;3.47;;;;;;;16.42;71.56;98181.09;4190239;28;20377;-72
2022/06/09 08:06:41;;;;;;;7.72;3.80;;;;;;;16.49;71.64;98181.00;4186213;28;20040;-72
2022/06/09 08:08:42;;;;;;;7.53;3.72;;;;;;;16.46;72.85;98190.19;4185701;28;20507;-72
2022/06/09 08:10:43;;;;;;;5.25;3.65;;;;;;;16.47;71.45;98175.06;4186924;28;20052;-72
2022/06/09 08:12:44;;;;;;;8.50;3.85;;;;;;;16.40;72.26;98172.38;4186046;28;20071;-72
2022/06/09 08:14:45;;;;;;;5.05;3.35;;;;;;;16.51;72.69;98175.75;4186551;28;20049;-72
2022/06/09 08:16:46;;;;;;;7.40;3.85;;;;;;;16.58;72.10;98179.22;4186161;28;20093;-72
2022/06/09 08:18:46;;;;;;;10.30;4.20;;;;;;;16.62;73.07;98173.56;4186153;28;20389;-72
2022/06/09 08:20:47;;;;;;;6.38;3.78;;;;;;;16.73;73.37;98171.41;4186022;28;20174;-72
2022/06/09 08:22:47;;;;;;;5.95;4.05;;;;;;;16.92;72.50;98183.06;4192458;27;20092;-72
2022/06/09 08:24:48;;;;;;;5.70;4.10;;;;;;;16.98;73.67;98184.16;4190408;28;20626;-72
2022/06/09 08:26:48;;;;;;;7.15;4.13;;;;;;;17.04;71.61;98177.59;4191814;28;20044;-72
2022/06/09 08:28:49;;;;;;;8.57;3.80;;;;;;;17.16;71.10;98181.00;4185254;28;20043;-72
2022/06/09 08:30:53;;;;;;;6.70;3.67;;;;;;;17.20;70.64;98174.09;4186130;28;20047;-72
2022/06/09 08:32:53;;;;;;;4.93;3.58;;;;;;;17.05;69.79;98181.22;4192007;27;20053;-71
2022/06/09 08:34:53;;;;;;;5.97;3.60;;;;;;;16.83;69.95;98186.41;4191821;28;20602;-72
2022/06/09 08:36:54;;;;;;;6.78;3.95;;;;;;;16.94;70.70;98189.78;4190050;28;20035;-72
2022/06/09 08:38:55;;;;;;;5.65;3.40;;;;;;;17.01;70.71;98189.66;4187081;28;20292;-72
2022/06/09 08:41:08;;;;;;;9.85;4.72;;;;;;;16.99;70.61;98192.09;4186419;28;20410;-72
2022/06/09 08:43:30;;;;;;;5.43;3.55;;;;;;;17.12;70.73;98192.25;4185991;28;20488;-72
2022/06/09 08:45:36;;;;;;;5.33;4.00;;;;;;;17.12;70.94;98197.81;4189250;27;20047;-72
2022/06/09 08:47:42;;;;;;;7.18;5.10;;;;;;;17.30;72.15;98192.69;4192761;28;20284;-71
2022/06/09 08:49:56;;;;;;;10.10;4.50;;;;;;;17.48;69.83;98203.53;4191701;28;20291;-72
2022/06/09 08:52:03;;;;;;;7.45;3.92;;;;;;;17.57;69.21;98209.31;4190133;28;20040;-72
2022/06/09 08:54:18;;;;;;;5.85;4.20;;;;;;;17.50;68.54;98208.69;4186521;28;20048;-72
2022/06/09 08:56:26;;;;;;;7.28;4.25;;;;;;;17.48;68.58;98203.53;4185643;28;20487;-72
2022/06/09 08:58:40;;;;;;;7.75;4.45;;;;;;;17.46;67.80;98199.56;4185067;28;20094;-72
2022/06/09 09:00:49;;;;;;;6.82;4.10;;;;;;;17.50;67.15;98209.47;4192090;28;20044;-72
2022/06/09 09:02:54;;;;;;;9.50;4.38;;;;;;;17.54;67.94;98212.19;4186009;28;20262;-72
2022/06/09 09:05:06;;;;;;;5.90;4.00;;;;;;;17.56;66.47;98209.75;4188597;28;20491;-71
2022/06/09 09:07:15;;;;;;;7.45;4.28;;;;;;;17.68;68.47;98207.06;4198508;27;20515;-71
2022/06/09 09:09:45;;;;;;;6.72;3.92;;;;;;;17.53;66.38;98213.41;4185174;28;20051;-71
2022/06/09 09:12:03;;;;;;;7.20;4.65;;;;;;;17.39;66.96;98215.28;4190528;28;20520;-71
2022/06/09 09:14:13;;;;;;;10.63;4.47;;;;;;;17.52;67.11;98215.41;4184698;28;20053;-72
2022/06/09 09:16:51;;;;;;;8.35;4.70;;;;;;;17.55;67.84;98217.38;4186154;28;20036;-71
2022/06/09 09:19:00;;;;;;;7.72;4.65;;;;;;;17.61;68.53;98220.41;4184967;28;20271;-71
2022/06/09 09:21:18;;;;;;;6.97;4.40;;;;;;;17.63;68.13;98227.19;4185385;28;20202;-72
2022/06/09 09:23:26;;;;;;;11.50;5.07;;;;;;;17.71;67.03;98229.84;4185670;28;20095;-72
2022/06/09 09:25:55;;;;;;;6.75;3.80;;;;;;;17.80;66.13;98230.06;4185423;28;20488;-71
2022/06/09 09:28:20;;;;;;;5.40;3.83;;;;;;;17.79;64.52;98239.66;4185523;28;20032;-72
2022/06/09 09:30:49;;;;;;;7.00;4.35;;;;;;;17.80;66.33;98241.25;4187957;28;20166;-71
2022/06/09 09:32:52;;;;;;;5.97;4.80;;;;;;;17.86;67.22;98240.31;4185437;28;20534;-71
2022/06/09 09:34:56;;;;;;;7.03;4.28;;;;;;;17.91;67.45;98230.63;4185895;28;20043;-72
2022/06/09 09:37:02;;;;;;;8.05;4.28;;;;;;;17.90;66.69;98246.63;4185718;28;20052;-72
2022/06/09 09:39:08;;;;;;;5.43;4.13;;;;;;;17.78;64.57;98241.66;4185048;28;20097;-72
2022/06/09 09:41:33;;;;;;;9.77;4.20;;;;;;;17.87;65.62;98244.69;4194185;27;20553;-72
2022/06/09 09:43:39;;;;;;;9.07;4.50;;;;;;;17.90;63.44;98241.03;4188824;28;20048;-71
2022/06/09 09:45:42;;;;;;;7.47;4.03;;;;;;;17.86;62.17;98247.91;4195058;28;20097;-72
2022/06/09 09:47:55;;;;;;;5.38;3.83;;;;;;;17.75;62.51;98239.75;4188671;28;20174;-72
2022/06/09 09:50:03;;;;;;;10.15;4.10;;;;;;;17.67;61.97;98244.66;4187437;28;20303;-71
2022/06/09 09:52:42;;;;;;;4.90;3.50;;;;;;;17.63;62.56;98251.56;4188205;28;20098;-72
2022/06/09 09:54:45;;;;;;;6.30;4.57;;;;;;;17.72;63.57;98239.84;4190162;28;20045;-71